INFORMACIÓN METAR y TAF
METAR FOR LEZL
ADDS - METARS form results

(2327 UTC 23 May 2019)
Data provider http://aviationweather.gov/metar/data/
 
METAR text: LEZL 232300Z VRB01KT CAVOK 23/08 Q1015 NOSIG
Conditions at: LEZL (SEVILLA (CIV/MIL, ES) observed 2300 UTC 23 May 2019
Temperature: 23.0°C (73°F)
Dewpoint: 8.0°C (46°F) [RH = 38%]
Pressure (altimeter): 29.97 inches Hg (1015.0 mb)
Winds: variable direction winds at 1 MPH (1 knots; 0.5 m/s)
Visibility: 6 or more miles (10+ km)
Ceiling: ceiling and visibility are OK
Clouds: unknown
Weather: no significant weather observed at this time

METAR text: LEZL 232230Z 30003KT CAVOK 23/08 Q1015 NOSIG
Conditions at: LEZL (SEVILLA (CIV/MIL, ES) observed 2230 UTC 23 May 2019
Temperature: 23.0°C (73°F)
Dewpoint: 8.0°C (46°F) [RH = 38%]
Pressure (altimeter): 29.97 inches Hg (1015.0 mb)
Winds: from the WNW (300 degrees) at 3 MPH (3 knots; 1.5 m/s)
Visibility: 6 or more miles (10+ km)
Ceiling: ceiling and visibility are OK
Clouds: unknown
Weather: no significant weather observed at this time

Forecast for: LEZL (SEVILLA (CIV/MIL, ES)
Text: TAF LEZL 232000Z 2321/2421 27006KT CAVOK TX32/2415Z TN17/2406Z
Forecast period: 2100 UTC 23 May 2019 to 2100 UTC 24 May 2019
Forecast type: FROM: standard forecast or significant change
Winds: from the W (270 degrees) at 7 MPH (6 knots; 3.1 m/s)
Visibility: 6 or more miles 10+ km)
Ceiling: unknown
Clouds: missing
Weather: no significant weather forecast for this period

 MAPA DE AEROPUERTO

 INFORMACIÓN DE PISTA
Pista 09 Longitud 11024 ft Ancho 148 ft
Elevación 83 ft Umbral desplazado 0 ft Rumbo de pista 90
Pista 27 Longitud 11024 ft Ancho 148 ft
Elevación 111 ft Umbral desplazado 0 ft Rumbo de pista 270

 FRECUANCIAS DEL AEROPUERTO
Tipo APP Nombre APP Frecuencia 120 MHZ
Tipo ATIS Nombre ATIS Frecuencia 118.175 MHZ
Tipo GND Nombre GND Frecuencia 121.7 MHZ
Tipo TWR Nombre TWR Frecuencia 118.1 MHZ

 RADIO AYUDAS DEL AEROPUERTO
Tipo NDB Nombre Sevilla Frecuencia 420 KHZ
Tipo VOR-DME Nombre Sevilla Frecuencia 113700 KHZ



              


PayPal

©2019 Oasis Virtual Airlines
Simulando desde el 2013

Oasis Líneas Aéreas Virtuales no está relacionada con ninguna compañía real.
Se trata de un entorno virtual de simulación aérea, sin ánimo de lucro.


Visitas:

VAM v2.6.2 [MOD.]